AUL554 UUDL-ULMK
Flight info
| Callsign | AUL554 |
|---|---|
| Flight time | N/A |
| Altitude | 34000 |
| Route | MAGOK2M MAGOK T617 GOBOM T747 ARMAD ARMAD4B |
| Aircraft | B738/M-SDE2E3FGHIRWXY/LB1 |
Departure
| Time | N/A |
|---|---|
| Airport | Golden Ring Yaroslavl International Airport (UUDL) |
Arrival
| Time | 2026-04-26 17:57 |
|---|---|
| Airport | Kirovsk-Apatity Airport (ULMK) |
| Time | Latitude | Longitude | Altitude | Speed | Heading |
|---|---|---|---|---|---|
| 2026-04-26 16:14 | 58.16690 | 39.75454 | 26210 ft | 474 kts | 346° |
| 2026-04-26 16:15 | 58.21013 | 39.74300 | 26773 ft | 478 kts | 346° |
| 2026-04-26 16:15 | 58.24253 | 39.73439 | 27189 ft | 480 kts | 346° |
| 2026-04-26 16:15 | 58.26408 | 39.72854 | 27477 ft | 481 kts | 345° |
| 2026-04-26 16:16 | 58.34138 | 39.70761 | 28345 ft | 488 kts | 345° |
| 2026-04-26 16:16 | 58.36353 | 39.70089 | 28584 ft | 488 kts | 343° |
| 2026-04-26 16:16 | 58.40762 | 39.68485 | 29006 ft | 492 kts | 341° |
| 2026-04-26 16:16 | 58.42984 | 39.67621 | 29268 ft | 493 kts | 341° |
| 2026-04-26 16:17 | 58.46304 | 39.66326 | 29749 ft | 492 kts | 341° |
| 2026-04-26 16:17 | 58.50717 | 39.64608 | 30454 ft | 489 kts | 341° |
| 2026-04-26 16:17 | 58.54002 | 39.63331 | 30875 ft | 488 kts | 340° |
| 2026-04-26 16:17 | 58.57299 | 39.62050 | 31303 ft | 486 kts | 340° |
| 2026-04-26 16:18 | 58.60562 | 39.60792 | 31685 ft | 480 kts | 341° |
| 2026-04-26 16:18 | 58.65665 | 39.58829 | 32095 ft | 476 kts | 342° |
| 2026-04-26 16:19 | 58.75686 | 39.55343 | 32746 ft | 475 kts | 349° |
| 2026-04-26 16:19 | 58.81442 | 39.54321 | 33144 ft | 472 kts | 351° |
| 2026-04-26 16:20 | 58.85800 | 39.53632 | 33341 ft | 474 kts | 352° |
| 2026-04-26 16:20 | 58.95607 | 39.52101 | 33380 ft | 471 kts | 352° |
| 2026-04-26 16:21 | 59.02116 | 39.51050 | 33379 ft | 475 kts | 352° |
| 2026-04-26 16:21 | 59.08644 | 39.49972 | 33383 ft | 468 kts | 352° |
| 2026-04-26 16:22 | 59.15062 | 39.48901 | 33376 ft | 468 kts | 352° |
| 2026-04-26 16:22 | 59.21517 | 39.47825 | 33401 ft | 469 kts | 352° |
| 2026-04-26 16:23 | 59.27962 | 39.46751 | 33404 ft | 467 kts | 352° |
| 2026-04-26 16:23 | 59.34413 | 39.45673 | 33420 ft | 467 kts | 352° |
| 2026-04-26 16:24 | 59.40830 | 39.44587 | 33420 ft | 466 kts | 352° |
| 2026-04-26 16:24 | 59.47292 | 39.43496 | 33427 ft | 467 kts | 352° |
| 2026-04-26 16:25 | 59.53685 | 39.42411 | 33428 ft | 467 kts | 352° |
| 2026-04-26 16:25 | 59.60152 | 39.41308 | 33432 ft | 466 kts | 353° |
| 2026-04-26 16:26 | 59.65513 | 39.40393 | 33443 ft | 466 kts | 353° |
| 2026-04-26 16:26 | 59.73000 | 39.39106 | 33436 ft | 468 kts | 353° |
| 2026-04-26 16:27 | 59.79458 | 39.37764 | 33429 ft | 469 kts | 348° |
| 2026-04-26 16:27 | 59.85705 | 39.34596 | 33429 ft | 462 kts | 339° |
| 2026-04-26 16:28 | 59.91747 | 39.30720 | 33430 ft | 458 kts | 338° |
| 2026-04-26 16:28 | 59.97753 | 39.26789 | 33426 ft | 459 kts | 338° |
| 2026-04-26 16:29 | 60.03827 | 39.22820 | 33430 ft | 459 kts | 338° |
| 2026-04-26 16:29 | 60.09863 | 39.18874 | 33439 ft | 460 kts | 339° |
| 2026-04-26 16:30 | 60.15898 | 39.14915 | 33438 ft | 461 kts | 339° |
| 2026-04-26 16:30 | 60.21943 | 39.10944 | 33432 ft | 460 kts | 339° |
| 2026-04-26 16:31 | 60.28006 | 39.06950 | 33453 ft | 460 kts | 339° |
| 2026-04-26 16:31 | 60.34003 | 39.02987 | 33456 ft | 461 kts | 339° |
| 2026-04-26 16:32 | 60.38958 | 38.99703 | 33448 ft | 459 kts | 339° |
| 2026-04-26 16:32 | 60.45989 | 38.95016 | 33443 ft | 464 kts | 339° |
| 2026-04-26 16:33 | 60.52033 | 38.90973 | 33431 ft | 458 kts | 339° |
| 2026-04-26 16:33 | 60.57949 | 38.86998 | 33434 ft | 458 kts | 339° |
| 2026-04-26 16:34 | 60.63919 | 38.82968 | 33436 ft | 458 kts | 339° |
| 2026-04-26 16:34 | 60.69897 | 38.78915 | 33447 ft | 458 kts | 339° |
| 2026-04-26 16:35 | 60.75896 | 38.74833 | 33454 ft | 457 kts | 339° |
| 2026-04-26 16:35 | 60.81883 | 38.70731 | 33455 ft | 457 kts | 339° |
| 2026-04-26 16:36 | 60.87848 | 38.66635 | 33457 ft | 456 kts | 339° |
| 2026-04-26 16:36 | 60.93825 | 38.62519 | 33461 ft | 456 kts | 339° |
| 2026-04-26 16:37 | 60.99787 | 38.58404 | 33465 ft | 456 kts | 339° |
| 2026-04-26 16:37 | 61.04773 | 38.54948 | 33460 ft | 456 kts | 339° |
| 2026-04-26 16:38 | 61.11719 | 38.50107 | 33455 ft | 456 kts | 339° |
| 2026-04-26 16:38 | 61.17662 | 38.45950 | 33455 ft | 455 kts | 339° |
| 2026-04-26 16:39 | 61.23569 | 38.41848 | 33459 ft | 455 kts | 341° |
| 2026-04-26 16:39 | 61.29677 | 38.38686 | 33461 ft | 457 kts | 346° |
| 2026-04-26 16:40 | 61.35820 | 38.35918 | 33464 ft | 457 kts | 346° |
| 2026-04-26 16:40 | 61.41956 | 38.33133 | 33466 ft | 456 kts | 345° |
| 2026-04-26 16:41 | 61.48050 | 38.30330 | 33466 ft | 455 kts | 345° |
| 2026-04-26 16:41 | 61.54169 | 38.27486 | 33463 ft | 455 kts | 345° |
| 2026-04-26 16:42 | 61.60284 | 38.24622 | 33461 ft | 455 kts | 345° |
| 2026-04-26 16:42 | 61.66404 | 38.21736 | 33462 ft | 455 kts | 345° |
| 2026-04-26 16:43 | 61.72509 | 38.18847 | 33464 ft | 455 kts | 346° |
| 2026-04-26 16:43 | 61.78635 | 38.15934 | 33467 ft | 454 kts | 346° |
| 2026-04-26 16:44 | 61.84746 | 38.13012 | 33468 ft | 455 kts | 346° |
| 2026-04-26 16:44 | 61.90900 | 38.10058 | 33475 ft | 455 kts | 346° |
| 2026-04-26 16:45 | 61.96983 | 38.07116 | 33487 ft | 454 kts | 345° |
| 2026-04-26 16:45 | 62.03089 | 38.04089 | 33494 ft | 453 kts | 345° |
| 2026-04-26 16:46 | 62.09134 | 38.01077 | 33494 ft | 452 kts | 345° |
| 2026-04-26 16:46 | 62.15206 | 37.98040 | 33493 ft | 452 kts | 345° |
| 2026-04-26 16:47 | 62.21258 | 37.94999 | 33487 ft | 452 kts | 346° |
| 2026-04-26 16:47 | 62.27285 | 37.91959 | 33489 ft | 453 kts | 345° |
| 2026-04-26 16:48 | 62.33359 | 37.88882 | 33494 ft | 453 kts | 346° |
| 2026-04-26 16:48 | 62.39409 | 37.85804 | 33499 ft | 453 kts | 345° |
| 2026-04-26 16:49 | 62.45446 | 37.82722 | 33508 ft | 453 kts | 345° |
| 2026-04-26 16:49 | 62.51557 | 37.79589 | 33519 ft | 453 kts | 346° |
| 2026-04-26 16:50 | 62.57591 | 37.76490 | 33510 ft | 452 kts | 345° |
| 2026-04-26 16:50 | 62.63645 | 37.73329 | 33515 ft | 452 kts | 345° |
| 2026-04-26 16:51 | 62.69597 | 37.69762 | 33527 ft | 451 kts | 342° |
| 2026-04-26 16:51 | 62.75523 | 37.65776 | 33526 ft | 451 kts | 342° |
| 2026-04-26 16:52 | 62.80463 | 37.62460 | 33524 ft | 450 kts | 342° |
| 2026-04-26 16:52 | 62.87413 | 37.57840 | 33526 ft | 450 kts | 342° |
| 2026-04-26 16:53 | 62.93299 | 37.53925 | 33522 ft | 450 kts | 342° |
| 2026-04-26 16:53 | 62.99251 | 37.49953 | 33522 ft | 450 kts | 342° |
| 2026-04-26 16:54 | 63.05182 | 37.45994 | 33529 ft | 449 kts | 342° |
| 2026-04-26 16:54 | 63.11116 | 37.42041 | 33535 ft | 449 kts | 342° |
| 2026-04-26 16:55 | 63.16985 | 37.38142 | 33535 ft | 449 kts | 342° |
| 2026-04-26 16:55 | 63.22913 | 37.34160 | 33550 ft | 448 kts | 341° |
| 2026-04-26 16:56 | 63.31790 | 37.28018 | 33555 ft | 448 kts | 340° |
| 2026-04-26 16:57 | 63.37647 | 37.23793 | 33571 ft | 448 kts | 340° |
| 2026-04-26 16:57 | 63.46486 | 37.17178 | 33587 ft | 449 kts | 339° |
| 2026-04-26 16:58 | 63.51329 | 37.13337 | 33594 ft | 448 kts | 339° |
| 2026-04-26 16:59 | 63.61031 | 37.05614 | 33594 ft | 447 kts | 339° |
| 2026-04-26 17:00 | 63.72661 | 36.96324 | 33600 ft | 447 kts | 339° |
| 2026-04-26 17:00 | 63.81405 | 36.89294 | 33621 ft | 447 kts | 339° |
| 2026-04-26 17:01 | 63.87194 | 36.84616 | 33629 ft | 448 kts | 339° |
| 2026-04-26 17:01 | 63.93066 | 36.79857 | 33647 ft | 448 kts | 339° |
| 2026-04-26 17:02 | 63.98869 | 36.75140 | 33652 ft | 447 kts | 339° |
| 2026-04-26 17:02 | 64.04666 | 36.70406 | 33658 ft | 446 kts | 339° |
| 2026-04-26 17:03 | 64.10436 | 36.65672 | 33667 ft | 446 kts | 339° |
| 2026-04-26 17:03 | 64.16260 | 36.60872 | 33673 ft | 447 kts | 339° |
| 2026-04-26 17:04 | 64.22061 | 36.56072 | 33667 ft | 448 kts | 339° |
| 2026-04-26 17:04 | 64.27862 | 36.51252 | 33667 ft | 445 kts | 339° |
| 2026-04-26 17:05 | 64.33624 | 36.46441 | 33672 ft | 447 kts | 339° |
| 2026-04-26 17:05 | 64.39423 | 36.41583 | 33670 ft | 446 kts | 339° |
| 2026-04-26 17:06 | 64.45223 | 36.36706 | 33675 ft | 445 kts | 339° |
| 2026-04-26 17:06 | 64.50988 | 36.31839 | 33686 ft | 445 kts | 338° |
| 2026-04-26 17:07 | 64.56773 | 36.26932 | 33692 ft | 445 kts | 338° |
| 2026-04-26 17:07 | 64.62533 | 36.21978 | 33693 ft | 444 kts | 336° |
| 2026-04-26 17:08 | 64.68078 | 36.15830 | 33700 ft | 444 kts | 331° |
| 2026-04-26 17:08 | 64.73550 | 36.09187 | 33691 ft | 450 kts | 331° |
| 2026-04-26 17:09 | 64.78122 | 36.03614 | 33695 ft | 450 kts | 331° |
| 2026-04-26 17:09 | 64.84528 | 35.95797 | 33693 ft | 444 kts | 331° |
| 2026-04-26 17:10 | 64.89919 | 35.89158 | 33710 ft | 443 kts | 331° |
| 2026-04-26 17:10 | 64.95347 | 35.82449 | 33714 ft | 443 kts | 331° |
| 2026-04-26 17:11 | 65.00743 | 35.75757 | 33719 ft | 442 kts | 331° |
| 2026-04-26 17:11 | 65.06025 | 35.68778 | 33720 ft | 441 kts | 327° |
| 2026-04-26 17:12 | 65.13645 | 35.57021 | 33720 ft | 441 kts | 326° |
| 2026-04-26 17:13 | 65.21269 | 35.45192 | 33718 ft | 441 kts | 326° |
| 2026-04-26 17:14 | 65.28923 | 35.33406 | 33723 ft | 441 kts | 326° |
| 2026-04-26 17:14 | 65.36613 | 35.21574 | 33720 ft | 440 kts | 326° |
| 2026-04-26 17:15 | 65.44245 | 35.09750 | 33727 ft | 439 kts | 326° |
| 2026-04-26 17:16 | 65.49315 | 35.01857 | 33726 ft | 439 kts | 326° |
| 2026-04-26 17:16 | 65.54426 | 34.93858 | 33732 ft | 439 kts | 326° |
| 2026-04-26 17:17 | 65.59513 | 34.85857 | 33735 ft | 439 kts | 326° |
| 2026-04-26 17:17 | 65.64564 | 34.77878 | 33743 ft | 438 kts | 326° |
| 2026-04-26 17:18 | 65.69613 | 34.69864 | 33748 ft | 440 kts | 326° |
| 2026-04-26 17:18 | 65.74649 | 34.61830 | 33750 ft | 439 kts | 326° |
| 2026-04-26 17:19 | 65.82219 | 34.49681 | 33751 ft | 441 kts | 326° |
| 2026-04-26 17:19 | 65.87301 | 34.41456 | 33749 ft | 441 kts | 326° |
| 2026-04-26 17:20 | 65.91505 | 34.34638 | 33748 ft | 437 kts | 325° |
| 2026-04-26 17:20 | 65.94790 | 34.29306 | 33596 ft | 428 kts | 325° |
| 2026-04-26 17:20 | 65.96956 | 34.25772 | 33301 ft | 423 kts | 325° |
| 2026-04-26 17:21 | 65.99607 | 34.21443 | 32883 ft | 421 kts | 325° |
| 2026-04-26 17:21 | 66.02028 | 34.17483 | 32462 ft | 423 kts | 325° |
| 2026-04-26 17:21 | 66.04457 | 34.13474 | 32325 ft | 432 kts | 324° |
| 2026-04-26 17:21 | 66.06973 | 34.09227 | 32289 ft | 441 kts | 324° |
| 2026-04-26 17:22 | 66.12041 | 34.00563 | 32241 ft | 456 kts | 324° |
| 2026-04-26 17:22 | 66.17265 | 33.91587 | 32183 ft | 470 kts | 324° |
| 2026-04-26 17:23 | 66.22633 | 33.82319 | 32130 ft | 482 kts | 324° |
| 2026-04-26 17:23 | 66.27538 | 33.73829 | 32119 ft | 467 kts | 324° |
| 2026-04-26 17:24 | 66.30529 | 33.68634 | 31884 ft | 449 kts | 324° |
| 2026-04-26 17:24 | 66.33037 | 33.64278 | 31654 ft | 435 kts | 325° |
| 2026-04-26 17:24 | 66.35500 | 33.60726 | 31431 ft | 427 kts | 334° |
| 2026-04-26 17:24 | 66.38269 | 33.58086 | 31443 ft | 429 kts | 342° |
| 2026-04-26 17:25 | 66.44123 | 33.56030 | 31576 ft | 428 kts | 356° |
| 2026-04-26 17:25 | 66.49979 | 33.55662 | 31703 ft | 425 kts | 358° |
| 2026-04-26 17:26 | 66.55712 | 33.55386 | 31666 ft | 406 kts | 358° |
| 2026-04-26 17:26 | 66.58469 | 33.55240 | 31189 ft | 405 kts | 357° |
| 2026-04-26 17:26 | 66.61258 | 33.55081 | 30798 ft | 401 kts | 357° |
| 2026-04-26 17:27 | 66.64037 | 33.54915 | 30344 ft | 397 kts | 357° |
| 2026-04-26 17:27 | 66.66731 | 33.54746 | 29860 ft | 393 kts | 357° |
| 2026-04-26 17:27 | 66.69450 | 33.54562 | 29348 ft | 388 kts | 356° |
| 2026-04-26 17:27 | 66.72112 | 33.54380 | 28828 ft | 384 kts | 356° |
| 2026-04-26 17:28 | 66.74744 | 33.54206 | 28311 ft | 380 kts | 356° |
| 2026-04-26 17:28 | 66.77338 | 33.54033 | 27791 ft | 376 kts | 356° |
| 2026-04-26 17:28 | 66.79923 | 33.53865 | 27269 ft | 373 kts | 356° |
| 2026-04-26 17:28 | 66.82496 | 33.53701 | 26758 ft | 368 kts | 356° |
| 2026-04-26 17:29 | 66.85009 | 33.53536 | 26252 ft | 364 kts | 356° |
| 2026-04-26 17:29 | 66.86666 | 33.53423 | 25915 ft | 361 kts | 356° |
| 2026-04-26 17:29 | 66.89996 | 33.53191 | 25186 ft | 355 kts | 356° |
| 2026-04-26 17:29 | 66.92413 | 33.53022 | 24613 ft | 350 kts | 356° |
| 2026-04-26 17:30 | 66.94782 | 33.52857 | 24032 ft | 346 kts | 356° |
| 2026-04-26 17:30 | 66.97149 | 33.52690 | 23436 ft | 341 kts | 356° |
| 2026-04-26 17:30 | 66.99504 | 33.52518 | 22857 ft | 336 kts | 356° |
| 2026-04-26 17:30 | 67.01805 | 33.52341 | 22255 ft | 332 kts | 356° |
| 2026-04-26 17:31 | 67.04083 | 33.52170 | 21671 ft | 328 kts | 356° |
| 2026-04-26 17:31 | 67.06325 | 33.52014 | 21079 ft | 324 kts | 357° |
| 2026-04-26 17:31 | 67.08540 | 33.51865 | 20477 ft | 320 kts | 357° |
| 2026-04-26 17:31 | 67.10738 | 33.51714 | 19885 ft | 316 kts | 357° |
| 2026-04-26 17:32 | 67.12912 | 33.51562 | 19307 ft | 312 kts | 357° |
| 2026-04-26 17:32 | 67.15059 | 33.51437 | 18694 ft | 310 kts | 359° |
| 2026-04-26 17:32 | 67.17141 | 33.52322 | 18124 ft | 311 kts | 19° |
| 2026-04-26 17:32 | 67.19006 | 33.55026 | 17526 ft | 312 kts | 36° |
| 2026-04-26 17:33 | 67.20517 | 33.58956 | 16926 ft | 314 kts | 52° |
| 2026-04-26 17:33 | 67.21407 | 33.63899 | 16341 ft | 318 kts | 73° |
| 2026-04-26 17:33 | 67.21619 | 33.69649 | 15749 ft | 319 kts | 90° |
| 2026-04-26 17:34 | 67.19965 | 33.80037 | 14559 ft | 321 kts | 133° |
| 2026-04-26 17:34 | 67.18271 | 33.83572 | 13983 ft | 319 kts | 149° |
| 2026-04-26 17:34 | 67.16218 | 33.85646 | 13437 ft | 315 kts | 170° |
| 2026-04-26 17:34 | 67.14080 | 33.86049 | 12989 ft | 312 kts | 180° |
| 2026-04-26 17:35 | 67.11910 | 33.86093 | 12535 ft | 311 kts | 181° |
| 2026-04-26 17:35 | 67.09785 | 33.86155 | 12126 ft | 309 kts | 180° |
| 2026-04-26 17:35 | 67.07656 | 33.86255 | 11708 ft | 307 kts | 180° |
| 2026-04-26 17:35 | 67.05507 | 33.86378 | 11259 ft | 307 kts | 179° |
| 2026-04-26 17:36 | 67.03408 | 33.86475 | 10848 ft | 305 kts | 182° |
| 2026-04-26 17:36 | 67.01366 | 33.85552 | 10541 ft | 296 kts | 203° |
| 2026-04-26 17:36 | 66.99684 | 33.82811 | 10269 ft | 284 kts | 226° |
| 2026-04-26 17:36 | 66.98216 | 33.79548 | 9989 ft | 280 kts | 214° |
| 2026-04-26 17:37 | 66.96478 | 33.77524 | 9767 ft | 275 kts | 202° |
| 2026-04-26 17:37 | 66.94730 | 33.75871 | 9747 ft | 261 kts | 202° |
| 2026-04-26 17:37 | 66.93077 | 33.74316 | 9756 ft | 249 kts | 202° |
| 2026-04-26 17:38 | 66.89931 | 33.71008 | 9751 ft | 245 kts | 221° |
| 2026-04-26 17:38 | 66.88937 | 33.67659 | 9768 ft | 238 kts | 255° |
| 2026-04-26 17:38 | 66.88859 | 33.63651 | 9770 ft | 230 kts | 290° |
| 2026-04-26 17:38 | 66.89707 | 33.60352 | 9936 ft | 221 kts | 321° |
| 2026-04-26 17:39 | 66.90902 | 33.57856 | 9996 ft | 227 kts | 323° |
| 2026-04-26 17:39 | 66.92178 | 33.55515 | 9983 ft | 223 kts | 328° |
| 2026-04-26 17:39 | 66.93483 | 33.53509 | 9981 ft | 221 kts | 333° |
| 2026-04-26 17:39 | 66.94863 | 33.51776 | 9982 ft | 222 kts | 338° |
| 2026-04-26 17:40 | 66.96302 | 33.50389 | 9981 ft | 222 kts | 343° |
| 2026-04-26 17:40 | 66.97295 | 33.49675 | 9987 ft | 222 kts | 347° |
| 2026-04-26 17:40 | 66.99317 | 33.48819 | 9988 ft | 223 kts | 355° |
| 2026-04-26 17:40 | 67.00871 | 33.48718 | 9984 ft | 224 kts | 1° |
| 2026-04-26 17:41 | 67.02403 | 33.49135 | 9984 ft | 224 kts | 8° |
| 2026-04-26 17:41 | 67.03928 | 33.49878 | 9983 ft | 223 kts | 9° |
| 2026-04-26 17:41 | 67.05438 | 33.50660 | 9982 ft | 224 kts | 11° |
| 2026-04-26 17:41 | 67.06972 | 33.51373 | 9979 ft | 223 kts | 5° |
| 2026-04-26 17:42 | 67.08505 | 33.51697 | 9977 ft | 222 kts | 1° |
| 2026-04-26 17:42 | 67.10043 | 33.51769 | 9974 ft | 221 kts | 359° |
| 2026-04-26 17:42 | 67.11571 | 33.51709 | 9958 ft | 220 kts | 358° |
| 2026-04-26 17:42 | 67.13076 | 33.51620 | 9821 ft | 213 kts | 358° |
| 2026-04-26 17:43 | 67.14548 | 33.51524 | 9711 ft | 213 kts | 357° |
| 2026-04-26 17:43 | 67.16039 | 33.51234 | 9582 ft | 221 kts | 352° |
| 2026-04-26 17:43 | 67.17576 | 33.50737 | 9307 ft | 224 kts | 352° |
| 2026-04-26 17:43 | 67.19101 | 33.50260 | 9037 ft | 221 kts | 353° |
| 2026-04-26 17:44 | 67.20607 | 33.49803 | 8770 ft | 219 kts | 353° |
| 2026-04-26 17:44 | 67.22092 | 33.49360 | 8503 ft | 217 kts | 353° |
| 2026-04-26 17:44 | 67.23583 | 33.48916 | 8234 ft | 216 kts | 353° |
| 2026-04-26 17:44 | 67.25067 | 33.48480 | 7964 ft | 215 kts | 353° |
| 2026-04-26 17:45 | 67.26539 | 33.48028 | 7700 ft | 214 kts | 353° |
| 2026-04-26 17:45 | 67.27991 | 33.47589 | 7431 ft | 212 kts | 353° |
| 2026-04-26 17:45 | 67.29457 | 33.47158 | 7159 ft | 211 kts | 353° |
| 2026-04-26 17:45 | 67.30888 | 33.46738 | 6894 ft | 210 kts | 353° |
| 2026-04-26 17:46 | 67.32347 | 33.46306 | 6629 ft | 210 kts | 353° |
| 2026-04-26 17:46 | 67.33783 | 33.45878 | 6364 ft | 210 kts | 353° |
| 2026-04-26 17:46 | 67.35225 | 33.45446 | 6141 ft | 207 kts | 353° |
| 2026-04-26 17:46 | 67.36601 | 33.44991 | 6124 ft | 196 kts | 349° |
| 2026-04-26 17:47 | 67.37814 | 33.43713 | 6119 ft | 187 kts | 325° |
| 2026-04-26 17:47 | 67.38451 | 33.42141 | 6122 ft | 188 kts | 313° |
| 2026-04-26 17:47 | 67.39526 | 33.38563 | 6124 ft | 191 kts | 311° |
| 2026-04-26 17:47 | 67.40340 | 33.35870 | 6123 ft | 190 kts | 311° |
| 2026-04-26 17:48 | 67.41152 | 33.33177 | 6122 ft | 190 kts | 310° |
| 2026-04-26 17:48 | 67.41965 | 33.30477 | 6120 ft | 190 kts | 310° |
| 2026-04-26 17:48 | 67.42775 | 33.27782 | 6111 ft | 191 kts | 310° |
| 2026-04-26 17:48 | 67.43604 | 33.25020 | 5877 ft | 194 kts | 310° |
| 2026-04-26 17:49 | 67.44412 | 33.22310 | 5621 ft | 191 kts | 310° |
| 2026-04-26 17:49 | 67.45227 | 33.19588 | 5403 ft | 186 kts | 310° |
| 2026-04-26 17:49 | 67.45997 | 33.16990 | 5273 ft | 178 kts | 310° |
| 2026-04-26 17:49 | 67.46734 | 33.14532 | 5230 ft | 170 kts | 311° |
| 2026-04-26 17:50 | 67.47459 | 33.12129 | 5180 ft | 166 kts | 311° |
| 2026-04-26 17:50 | 67.48217 | 33.09891 | 5127 ft | 164 kts | 324° |
| 2026-04-26 17:50 | 67.49223 | 33.08676 | 5071 ft | 163 kts | 347° |
| 2026-04-26 17:50 | 67.50352 | 33.08532 | 4915 ft | 166 kts | 8° |
| 2026-04-26 17:51 | 67.51405 | 33.09679 | 4732 ft | 166 kts | 31° |
| 2026-04-26 17:51 | 67.52312 | 33.11530 | 4543 ft | 166 kts | 33° |
| 2026-04-26 17:51 | 67.53215 | 33.13347 | 4363 ft | 166 kts | 33° |
| 2026-04-26 17:51 | 67.54126 | 33.15196 | 4185 ft | 166 kts | 33° |
| 2026-04-26 17:52 | 67.55032 | 33.17039 | 4016 ft | 161 kts | 33° |
| 2026-04-26 17:52 | 67.55868 | 33.18789 | 3884 ft | 151 kts | 39° |
| 2026-04-26 17:52 | 67.56432 | 33.21171 | 3768 ft | 163 kts | 69° |
| 2026-04-26 17:52 | 67.56401 | 33.24106 | 3570 ft | 168 kts | 108° |
| 2026-04-26 17:53 | 67.55753 | 33.26570 | 3275 ft | 164 kts | 123° |
| 2026-04-26 17:53 | 67.55137 | 33.28977 | 3041 ft | 155 kts | 121° |
| 2026-04-26 17:53 | 67.54488 | 33.31244 | 2836 ft | 157 kts | 124° |
| 2026-04-26 17:54 | 67.53161 | 33.35711 | 2424 ft | 157 kts | 124° |
| 2026-04-26 17:54 | 67.52488 | 33.37957 | 2216 ft | 157 kts | 124° |
| 2026-04-26 17:54 | 67.51817 | 33.40192 | 2066 ft | 155 kts | 125° |
| 2026-04-26 17:54 | 67.51148 | 33.42424 | 1925 ft | 156 kts | 125° |
| 2026-04-26 17:55 | 67.50483 | 33.44641 | 1702 ft | 157 kts | 125° |
| 2026-04-26 17:55 | 67.49819 | 33.46840 | 1482 ft | 151 kts | 125° |
| 2026-04-26 17:55 | 67.49169 | 33.48999 | 1269 ft | 151 kts | 126° |
| 2026-04-26 17:55 | 67.48536 | 33.51138 | 1074 ft | 146 kts | 127° |
| 2026-04-26 17:56 | 67.47920 | 33.53137 | 863 ft | 138 kts | 126° |
| 2026-04-26 17:56 | 67.46736 | 33.57001 | 500 ft | 129 kts | 127° |
| 2026-04-26 17:57 | 67.46017 | 33.59378 | 492 ft | 61 kts | 127° |
| 2026-04-26 17:57 | 67.45782 | 33.60154 | 485 ft | 39 kts | 128° |
| 2026-04-26 17:57 | 67.45652 | 33.60586 | 479 ft | 26 kts | 136° |
| 2026-04-26 17:57 | 67.45579 | 33.60729 | 476 ft | 7 kts | 80° |
| 2026-04-26 17:58 | 67.45840 | 33.59965 | 488 ft | 26 kts | 307° |
| 2026-04-26 17:59 | 67.46044 | 33.59279 | 492 ft | 22 kts | 309° |
| 2026-04-26 17:59 | 67.46133 | 33.58985 | 495 ft | 19 kts | 311° |
| 2026-04-26 17:59 | 67.46210 | 33.58711 | 496 ft | 18 kts | 280° |
| 2026-04-26 17:59 | 67.46146 | 33.58490 | 498 ft | 15 kts | 217° |
| 2026-04-26 18:00 | 67.46130 | 33.58456 | 497 ft | 0 kts | 217° |
| 2026-04-26 18:00 | 67.46127 | 33.58450 | 497 ft | 3 kts | 217° |
| 2026-04-26 18:00 | 67.46071 | 33.58315 | 496 ft | 7 kts | 257° |
| 2026-04-26 18:01 | 67.46091 | 33.58218 | 497 ft | 4 kts | 308° |
| 2026-04-26 18:01 | 67.46093 | 33.58213 | 497 ft | 0 kts | 308° |